^^
Meteo Knjazevac Station Historical Data
Daily Summary for November 9, 2021 Units:  Metric    English   Both
Daily Weekly Monthly Yearly Custom
  High: Low: Average:
Temperature: 8.5 °C 7.9 °C 8.2 °C
Dew Point: 8.3 °C 7.8 °C 8.1 °C
Humidity: 99% 98% 99%
Wind Speed: 9.7km/h 0km/h 4.8km/h
Wind Gust: 16.1km/h - -
Wind- - SSW
Pressure: 1024.6 hPa 1023.2 hPa -
Precipitation: 0 mm    
Historical Graphs
 
 
Tabular Data for November 9, 2021
Time Temperature Dew Point Pressure Wind Wind Speed Wind Gust Humidity Rainfall Rate (Hourly) solar Conditions
00:00 8.5 °C 8.2 °C 1023.9 hPa SSW 4.8 km/h 9.7 km/h 98% 0 mm 0 W/m2
00:10 8.5 °C 8.3 °C 1023.9 hPa SW 4.8 km/h 9.7 km/h 99% 0 mm 0 W/m2
00:20 8.5 °C 8.3 °C 1024.3 hPa SSW 3.2 km/h 8 km/h 99% 0 mm 0 W/m2
00:30 8.5 °C 8.3 °C 1023.9 hPa SE 1.6 km/h 6.4 km/h 99% 0 mm 0 W/m2
00:40 8.5 °C 8.3 °C 1023.6 hPa Calm   4.8 km/h 99% 0 mm 0 W/m2
00:50 8.5 °C 8.3 °C 1023.6 hPa Calm   6.4 km/h 99% 0 mm 0 W/m2
01:00 8.5 °C 8.3 °C 1023.6 hPa East 1.6 km/h 4.8 km/h 99% 0 mm 0 W/m2
01:10 8.4 °C 8.3 °C 1023.2 hPa SSE 3.2 km/h 6.4 km/h 99% 0 mm 0 W/m2
01:20 8.4 °C 8.3 °C 1023.6 hPa SW 3.2 km/h 4.8 km/h 99% 0 mm 0 W/m2
01:30 8.4 °C 8.3 °C 1023.6 hPa SW 4.8 km/h 6.4 km/h 99% 0 mm 0 W/m2
01:40 8.4 °C 8.3 °C 1023.9 hPa WSW 8 km/h 11.3 km/h 99% 0 mm 0 W/m2
01:50 8.4 °C 8.3 °C 1024.3 hPa WSW 9.7 km/h 12.9 km/h 99% 0 mm 0 W/m2
02:00 8.4 °C 8.3 °C 1023.9 hPa SW 4.8 km/h 11.3 km/h 99% 0 mm 0 W/m2
02:10 8.4 °C 8.3 °C 1023.9 hPa SSW 8 km/h 12.9 km/h 99% 0 mm 0 W/m2
02:20 8.4 °C 8.2 °C 1023.9 hPa SSW 4.8 km/h 9.7 km/h 99% 0 mm 0 W/m2
02:30 8.3 °C 8.2 °C 1023.9 hPa SSW 3.2 km/h 9.7 km/h 99% 0 mm 0 W/m2
02:40 8.3 °C 8.2 °C 1023.9 hPa SSW 3.2 km/h 8 km/h 99% 0 mm 0 W/m2
02:50 8.3 °C 8.2 °C 1023.9 hPa SW 3.2 km/h 9.7 km/h 99% 0 mm 0 W/m2
03:00 8.3 °C 8.2 °C 1023.9 hPa SW 3.2 km/h 9.7 km/h 99% 0 mm 0 W/m2
03:10 8.3 °C 8.2 °C 1023.9 hPa WSW 4.8 km/h 9.7 km/h 99% 0 mm 0 W/m2
03:20 8.3 °C 8.2 °C 1023.6 hPa WSW 4.8 km/h 11.3 km/h 99% 0 mm 0 W/m2
03:30 8.2 °C 8.1 °C 1023.9 hPa WSW 9.7 km/h 16.1 km/h 99% 0 mm 0 W/m2
03:40 8.2 °C 8.1 °C 1024.3 hPa SW 9.7 km/h 12.9 km/h 99% 0 mm 0 W/m2
03:50 8.1 °C 7.9 °C 1024.3 hPa SW 9.7 km/h 12.9 km/h 99% 0 mm 0 W/m2
04:00 8.1 °C 7.9 °C 1024.3 hPa SW 8 km/h 14.5 km/h 99% 0 mm 0 W/m2
04:10 8 °C 7.8 °C 1024.3 hPa SW 8 km/h 12.9 km/h 99% 0 mm 0 W/m2
04:20 8 °C 7.8 °C 1024.3 hPa SW 9.7 km/h 12.9 km/h 99% 0 mm 0 W/m2
04:30 7.9 °C 7.8 °C 1024.3 hPa SSW 3.2 km/h 12.9 km/h 99% 0 mm 0 W/m2
04:40 7.9 °C 7.8 °C 1024.3 hPa SSW 4.8 km/h 11.3 km/h 99% 0 mm 0 W/m2
04:50 7.9 °C 7.8 °C 1024.3 hPa South 3.2 km/h 9.7 km/h 99% 0 mm 0 W/m2
05:00 7.9 °C 7.8 °C 1024.3 hPa SSW 3.2 km/h 9.7 km/h 99% 0 mm 0 W/m2
05:10 7.9 °C 7.8 °C 1024.3 hPa South 3.2 km/h 11.3 km/h 99% 0 mm 0 W/m2
05:20 7.9 °C 7.8 °C 1024.6 hPa SSW 3.2 km/h 8 km/h 99% 0 mm 0 W/m2
05:30 7.9 °C 7.8 °C 1024.6 hPa SSW 3.2 km/h 9.7 km/h 99% 0 mm 0 W/m2
05:40 7.9 °C 7.8 °C 1024.6 hPa SSW 4.8 km/h 11.3 km/h 99% 0 mm 0 W/m2
05:50 7.9 °C 7.8 °C 1024.6 hPa SSW 3.2 km/h 12.9 km/h 99% 0 mm 0 W/m2
Knjazevac, Serbia
Compliments of Weather Underground - 2 mb